Česky Dansk Deutsch English Español Suomi Français Magyar Italiano Nederlands norsk Polski Português svenska Türkçe

 

Het Weer

Berlin-Tempelhof (Duitsland)

03:20, 3 juli 2009 (GMT)

NWNNE
WE
SWSSE
Home            
Berlin-Tempelhof Berlin-Schoenefeld Berlin-Tegel Holzdorf Cottbus Flugplatz Wittstock Preschen Trollenhagen Magdeburg, Sachsen-Anhalt Szczecin Leipzig-Schkeuditz Dresden-Klotzsche Mecklenburg-Vorpommern, Parchim Zielona Gora Heringsdorf Laage Altenburg Nobitz Braunschweig Liberec Fassberg Celle Poznan Luebeck-Blankensee

Om een weerknop op uw website of weblog te plaatsen, copieer onderstaande code en plak die in uw pagina. In het eerste vakje staat HTML-code, in het tweede vakje UBB-code.


Add to Google

Details

Wind speed:1 bf, 2 kn, 1.0 m/s, 2.3 miles/h, 3.7 km/h
Wind direction:NNE, 020°
Visibility:Greater than 10000 m, 10 km, 32800 ft, 6.2 miles
Clouds:CAVOC
Temperature:18°C, 64°F
Dew-point:16°C, 61°F
Atmospheric pressure:1015 hPa, 761.3 mmHg, 29.97 inHg, 1.002 atm
Relative humidity:88.1 %
METAR:EDDI 030320Z 02002KT CAVOK 18/16 Q1015 NOSIG

Snelkoppelingen

Actuele weersinformatie van de hele wereld. Voeg locaties toe met het plus (+) symbool. Deze snelkoppelingen kunnen worden toegevoegd aan Google.

Lid van de Technetium groep

website free tracking
StatCounter NetStat W3C Validator

25-11-2020 08:47:16
astro.technetium.be money.technetium.be phote.technetium.be tafeltennistafel.technetium.be www.ligfiets.net